createdAt,value
2019-03-23T00:00:47.213Z,1020.23
2019-03-23T00:01:47.192Z,1020.25
2019-03-23T00:02:47.189Z,1020.27
2019-03-23T00:03:47.187Z,1020.26
2019-03-23T00:04:47.170Z,1020.23
2019-03-23T00:05:47.158Z,1020.27
2019-03-23T00:06:47.138Z,1020.24
2019-03-23T00:07:47.128Z,1020.27
2019-03-23T00:08:47.139Z,1020.28
2019-03-23T00:09:47.108Z,1020.28
2019-03-23T00:10:47.102Z,1020.32
2019-03-23T00:11:47.154Z,1020.32
2019-03-23T00:12:47.067Z,1020.33
2019-03-23T00:13:47.075Z,1020.27
2019-03-23T00:14:47.053Z,1020.28
2019-03-23T00:15:47.053Z,1020.32
2019-03-23T00:16:47.022Z,1020.32
2019-03-23T00:17:47.020Z,1020.35
2019-03-23T00:18:47.013Z,1020.31
2019-03-23T00:19:47.001Z,1020.35
2019-03-23T00:20:46.990Z,1020.37
2019-03-23T00:21:46.966Z,1020.38
2019-03-23T00:22:46.966Z,1020.39
2019-03-23T00:23:46.943Z,1020.35
2019-03-23T00:24:46.935Z,1020.33
2019-03-23T00:25:46.967Z,1020.32
2019-03-23T00:26:46.960Z,1020.35
2019-03-23T00:27:46.899Z,1020.36
2019-03-23T00:28:46.896Z,1020.36
2019-03-23T00:29:46.908Z,1020.39
2019-03-23T00:30:46.877Z,1020.34
2019-03-23T00:31:46.903Z,1020.36
2019-03-23T00:32:46.868Z,1020.40
2019-03-23T00:33:46.838Z,1020.41
2019-03-23T00:34:46.848Z,1020.39
2019-03-23T00:35:46.853Z,1020.39
2019-03-23T00:36:46.822Z,1020.42
2019-03-23T00:37:46.797Z,1020.46
2019-03-23T00:38:46.792Z,1020.46
2019-03-23T00:39:46.774Z,1020.46
2019-03-23T00:40:48.525Z,1020.50
2019-03-23T00:41:46.888Z,1020.52
2019-03-23T00:42:46.759Z,1020.47
2019-03-23T00:43:46.719Z,1020.47
2019-03-23T00:44:46.713Z,1020.45
2019-03-23T00:45:46.712Z,1020.48
2019-03-23T00:46:46.704Z,1020.46
2019-03-23T00:47:46.694Z,1020.50
2019-03-23T00:48:46.685Z,1020.44
2019-03-23T00:49:46.670Z,1020.45
2019-03-23T00:50:46.659Z,1020.48
2019-03-23T00:51:46.651Z,1020.51
2019-03-23T00:52:46.631Z,1020.44
2019-03-23T00:53:46.963Z,1020.50
2019-03-23T00:54:46.605Z,1020.48
2019-03-23T00:55:46.608Z,1020.47
2019-03-23T00:56:46.592Z,1020.53
2019-03-23T00:57:46.577Z,1020.52
2019-03-23T00:58:46.562Z,1020.53
2019-03-23T00:59:46.542Z,1020.52
2019-03-23T01:00:46.546Z,1020.53
2019-03-23T01:01:46.535Z,1020.51
2019-03-23T01:02:46.512Z,1020.55
2019-03-23T01:03:46.507Z,1020.53
2019-03-23T01:04:46.493Z,1020.51
2019-03-23T01:05:46.552Z,1020.47
2019-03-23T01:06:52.172Z,1020.53
2019-03-23T01:07:47.470Z,1020.48
2019-03-23T01:08:46.457Z,1020.52
2019-03-23T01:09:46.443Z,1020.50
2019-03-23T01:10:46.441Z,1020.49
2019-03-23T01:11:46.434Z,1020.50
2019-03-23T01:12:46.404Z,1020.50
2019-03-23T01:13:46.420Z,1020.46
2019-03-23T01:14:46.374Z,1020.47
2019-03-23T01:15:48.104Z,1020.45
2019-03-23T01:16:46.389Z,1020.53
2019-03-23T01:17:46.355Z,1020.49
2019-03-23T01:18:46.361Z,1020.48
2019-03-23T01:19:46.329Z,1020.52
2019-03-23T01:20:49.803Z,1020.47
2019-03-23T01:21:46.325Z,1020.49
2019-03-23T01:22:46.297Z,1020.48
2019-03-23T01:23:46.296Z,1020.52
2019-03-23T01:24:46.282Z,1020.51
2019-03-23T01:25:46.281Z,1020.52
2019-03-23T01:26:46.267Z,1020.54
2019-03-23T01:27:46.249Z,1020.56
2019-03-23T01:28:46.226Z,1020.55
2019-03-23T01:29:46.234Z,1020.53
2019-03-23T01:30:46.216Z,1020.53
2019-03-23T01:31:46.250Z,1020.55
2019-03-23T01:32:46.182Z,1020.52
2019-03-23T01:33:46.189Z,1020.49
2019-03-23T01:34:46.160Z,1020.46
2019-03-23T01:35:46.208Z,1020.45
2019-03-23T01:36:46.152Z,1020.44
2019-03-23T01:37:46.124Z,1020.45
2019-03-23T01:38:46.115Z,1020.43
2019-03-23T01:39:46.101Z,1020.49
2019-03-23T01:40:46.102Z,1020.52
2019-03-23T01:41:46.135Z,1020.55
2019-03-23T01:42:46.064Z,1020.54
2019-03-23T01:43:46.068Z,1020.52
2019-03-23T01:44:46.048Z,1020.52
2019-03-23T01:45:46.035Z,1020.52
2019-03-23T01:46:46.048Z,1020.55
2019-03-23T01:47:46.009Z,1020.57
2019-03-23T01:48:46.034Z,1020.55
2019-03-23T01:49:45.985Z,1020.57
2019-03-23T01:50:45.975Z,1020.57
2019-03-23T01:51:45.996Z,1020.61
2019-03-23T01:52:45.967Z,1020.62
2019-03-23T01:53:45.958Z,1020.62
2019-03-23T01:54:45.935Z,1020.56
2019-03-23T01:55:45.936Z,1020.63
2019-03-23T01:56:45.956Z,1020.66
2019-03-23T01:57:45.939Z,1020.68
2019-03-23T01:58:45.888Z,1020.67
2019-03-23T01:59:45.892Z,1020.64
2019-03-23T02:00:45.864Z,1020.64
2019-03-23T02:01:45.860Z,1020.66
2019-03-23T02:02:47.528Z,1020.62
2019-03-23T02:03:45.836Z,1020.63
2019-03-23T02:04:45.818Z,1020.65
2019-03-23T02:05:45.807Z,1020.66
2019-03-23T02:06:45.805Z,1020.64
2019-03-23T02:07:45.797Z,1020.64
2019-03-23T02:08:45.791Z,1020.65
2019-03-23T02:09:45.774Z,1020.63
2019-03-23T02:10:45.753Z,1020.69
2019-03-23T02:11:45.779Z,1020.69
2019-03-23T02:12:45.753Z,1020.71
2019-03-23T02:13:45.747Z,1020.70
2019-03-23T02:14:45.721Z,1020.72
2019-03-23T02:15:45.709Z,1020.71
2019-03-23T02:16:45.716Z,1020.76
2019-03-23T02:17:45.693Z,1020.77
2019-03-23T02:18:45.668Z,1020.75
2019-03-23T02:19:45.666Z,1020.77
2019-03-23T02:20:45.675Z,1020.79
2019-03-23T02:21:45.683Z,1020.78
2019-03-23T02:22:45.637Z,1020.80
2019-03-23T02:23:45.615Z,1020.80
2019-03-23T02:24:45.624Z,1020.81
2019-03-23T02:25:45.594Z,1020.80
2019-03-23T02:26:45.629Z,1020.80
2019-03-23T02:27:45.595Z,1020.81
2019-03-23T02:28:45.562Z,1020.81
2019-03-23T02:29:45.550Z,1020.88
2019-03-23T02:30:45.563Z,1020.89
2019-03-23T02:31:45.556Z,1020.89
2019-03-23T02:32:45.509Z,1020.88
2019-03-23T02:33:45.519Z,1020.94
2019-03-23T02:34:45.508Z,1020.98
2019-03-23T02:35:45.488Z,1020.92
2019-03-23T02:36:45.531Z,1020.97
2019-03-23T02:37:45.541Z,1021.01
2019-03-23T02:38:45.455Z,1020.97
2019-03-23T02:39:45.459Z,1020.95
2019-03-23T02:40:45.430Z,1020.96
2019-03-23T02:41:45.521Z,1021.01
2019-03-23T02:42:45.414Z,1021.03
2019-03-23T02:43:45.422Z,1021.01
2019-03-23T02:44:45.397Z,1021.02
2019-03-23T02:45:45.375Z,1021.04
2019-03-23T02:46:45.379Z,1021.03
2019-03-23T02:47:45.371Z,1021.11
2019-03-23T02:48:45.363Z,1021.14
2019-03-23T02:49:45.330Z,1021.14
2019-03-23T02:50:45.317Z,1021.16
2019-03-23T02:51:45.328Z,1021.13
2019-03-23T02:52:45.305Z,1021.13
2019-03-23T02:53:45.292Z,1021.13
2019-03-23T02:54:45.284Z,1021.14
2019-03-23T02:55:45.269Z,1021.19
2019-03-23T02:56:45.294Z,1021.12
2019-03-23T02:57:45.248Z,1021.19
2019-03-23T02:58:45.245Z,1021.15
2019-03-23T02:59:45.276Z,1021.11
2019-03-23T03:00:45.202Z,1021.19
2019-03-23T03:01:45.206Z,1021.19
2019-03-23T03:02:45.206Z,1021.22
2019-03-23T03:03:45.189Z,1021.25
2019-03-23T03:04:45.164Z,1021.24
2019-03-23T03:05:45.169Z,1021.24
2019-03-23T03:06:45.157Z,1021.26
2019-03-23T03:07:45.134Z,1021.27
2019-03-23T03:08:45.141Z,1021.28
2019-03-23T03:09:45.116Z,1021.31
2019-03-23T03:10:45.110Z,1021.33
2019-03-23T03:11:45.100Z,1021.38
2019-03-23T03:12:45.111Z,1021.29
2019-03-23T03:13:45.056Z,1021.34
2019-03-23T03:14:45.056Z,1021.32
2019-03-23T03:15:45.070Z,1021.35
2019-03-23T03:16:45.032Z,1021.35
2019-03-23T03:17:45.068Z,1021.35
2019-03-23T03:18:45.025Z,1021.32
2019-03-23T03:19:44.997Z,1021.34
2019-03-23T03:20:44.988Z,1021.36
2019-03-23T03:21:44.981Z,1021.40
2019-03-23T03:22:44.981Z,1021.35
2019-03-23T03:23:44.976Z,1021.38
2019-03-23T03:24:44.936Z,1021.40
2019-03-23T03:25:44.928Z,1021.42
2019-03-23T03:26:44.935Z,1021.40
2019-03-23T03:27:44.914Z,1021.43
2019-03-23T03:28:44.927Z,1021.48
2019-03-23T03:29:44.885Z,1021.50
2019-03-23T03:30:44.885Z,1021.51
2019-03-23T03:31:44.879Z,1021.55
2019-03-23T03:32:44.882Z,1021.54
2019-03-23T03:33:44.851Z,1021.58
2019-03-23T03:34:44.856Z,1021.50
2019-03-23T03:35:44.831Z,1021.60
2019-03-23T03:36:44.806Z,1021.58
2019-03-23T03:37:55.863Z,1021.57
2019-03-23T03:38:45.785Z,1021.54
2019-03-23T03:39:44.779Z,1021.59
2019-03-23T03:40:44.779Z,1021.63
2019-03-23T03:41:44.806Z,1021.56
2019-03-23T03:42:44.751Z,1021.62
2019-03-23T03:43:44.742Z,1021.59
2019-03-23T03:44:44.724Z,1021.59
2019-03-23T03:45:44.736Z,1021.63
2019-03-23T03:46:44.716Z,1021.57
2019-03-23T03:47:44.709Z,1021.58
2019-03-23T03:48:44.678Z,1021.58
2019-03-23T03:49:44.681Z,1021.61
2019-03-23T03:50:44.656Z,1021.58
2019-03-23T03:51:44.644Z,1021.60
2019-03-23T03:52:44.635Z,1021.63
2019-03-23T03:53:44.620Z,1021.63
2019-03-23T03:54:44.607Z,1021.70
2019-03-23T03:55:44.590Z,1021.65
2019-03-23T03:56:44.591Z,1021.66
2019-03-23T03:57:44.584Z,1021.69
2019-03-23T03:58:44.563Z,1021.70
2019-03-23T03:59:44.551Z,1021.72
2019-03-23T04:00:44.563Z,1021.69
2019-03-23T04:01:44.558Z,1021.64
2019-03-23T04:02:44.544Z,1021.71
2019-03-23T04:03:44.515Z,1021.73
2019-03-23T04:04:44.498Z,1021.67
2019-03-23T04:05:44.483Z,1021.71
2019-03-23T04:06:44.492Z,1021.72
2019-03-23T04:07:44.487Z,1021.76
2019-03-23T04:08:44.450Z,1021.80
2019-03-23T04:09:44.439Z,1021.79
2019-03-23T04:10:44.433Z,1021.74
2019-03-23T04:11:44.513Z,1021.75
2019-03-23T04:12:44.425Z,1021.77
2019-03-23T04:13:44.400Z,1021.74
2019-03-23T04:14:44.411Z,1021.78
2019-03-23T04:15:44.396Z,1021.79
2019-03-23T04:16:44.369Z,1021.76
2019-03-23T04:17:44.387Z,1021.77
2019-03-23T04:18:44.360Z,1021.80
2019-03-23T04:19:44.352Z,1021.82
2019-03-23T04:20:44.325Z,1021.87
2019-03-23T04:21:44.313Z,1021.85
2019-03-23T04:22:44.323Z,1021.94
2019-03-23T04:23:44.295Z,1021.97
2019-03-23T04:24:44.291Z,1022.00
2019-03-23T04:25:44.282Z,1022.00
2019-03-23T04:26:44.281Z,1021.99
2019-03-23T04:27:44.262Z,1022.00
2019-03-23T04:28:44.229Z,1022.02
2019-03-23T04:29:44.223Z,1022.04
2019-03-23T04:30:44.230Z,1022.06
2019-03-23T04:31:44.212Z,1022.05
2019-03-23T04:32:44.224Z,1022.05
2019-03-23T04:33:44.182Z,1022.04
2019-03-23T04:34:44.174Z,1022.07
2019-03-23T04:35:44.164Z,1022.03
2019-03-23T04:36:44.148Z,1022.05
2019-03-23T04:37:44.148Z,1022.05
2019-03-23T04:38:44.146Z,1022.07
2019-03-23T04:39:44.106Z,1022.05
2019-03-23T04:40:44.100Z,1022.07
2019-03-23T04:41:44.160Z,1022.09
2019-03-23T04:42:44.086Z,1022.13
2019-03-23T04:43:44.076Z,1022.10
2019-03-23T04:44:44.068Z,1022.13
2019-03-23T04:45:44.040Z,1022.12
2019-03-23T04:46:44.139Z,1022.11
2019-03-23T04:47:44.041Z,1022.14
2019-03-23T04:48:44.047Z,1022.13
2019-03-23T04:49:44.008Z,1022.14
2019-03-23T04:50:43.996Z,1022.16
2019-03-23T04:51:43.983Z,1022.17
2019-03-23T04:52:43.974Z,1022.19
2019-03-23T04:53:43.968Z,1022.21
2019-03-23T04:54:43.960Z,1022.21
2019-03-23T04:55:43.933Z,1022.21
2019-03-23T04:56:43.928Z,1022.26
2019-03-23T04:57:43.931Z,1022.19
2019-03-23T04:58:43.905Z,1022.24
2019-03-23T04:59:43.893Z,1022.26
2019-03-23T05:00:43.883Z,1022.28
2019-03-23T05:01:43.883Z,1022.36
2019-03-23T05:02:43.895Z,1022.34
2019-03-23T05:03:43.840Z,1022.32
2019-03-23T05:04:43.848Z,1022.36
2019-03-23T05:05:43.845Z,1022.34
2019-03-23T05:06:43.826Z,1022.35
2019-03-23T05:07:43.820Z,1022.37
2019-03-23T05:08:43.854Z,1022.36
2019-03-23T05:09:43.791Z,1022.41
2019-03-23T05:10:43.768Z,1022.41
2019-03-23T05:11:43.785Z,1022.40
2019-03-23T05:12:43.759Z,1022.40
2019-03-23T05:13:43.752Z,1022.44
2019-03-23T05:14:43.718Z,1022.41
2019-03-23T05:15:43.725Z,1022.45
2019-03-23T05:16:43.709Z,1022.46
2019-03-23T05:17:43.706Z,1022.49
2019-03-23T05:18:43.673Z,1022.48
2019-03-23T05:19:43.669Z,1022.48
2019-03-23T05:20:43.655Z,1022.50
2019-03-23T05:21:43.652Z,1022.54
2019-03-23T05:22:43.647Z,1022.56
2019-03-23T05:23:45.788Z,1022.56
2019-03-23T05:24:43.608Z,1022.58
2019-03-23T05:25:43.609Z,1022.55
2019-03-23T05:26:43.594Z,1022.59
2019-03-23T05:27:43.655Z,1022.58
2019-03-23T05:28:43.558Z,1022.58
2019-03-23T05:29:43.567Z,1022.56
2019-03-23T05:30:43.567Z,1022.58
2019-03-23T05:31:43.528Z,1022.57
2019-03-23T05:32:43.530Z,1022.53
2019-03-23T05:33:43.520Z,1022.53
2019-03-23T05:34:43.500Z,1022.51
2019-03-23T05:35:43.490Z,1022.53
2019-03-23T05:36:43.482Z,1022.56
2019-03-23T05:37:43.493Z,1022.52
2019-03-23T05:38:44.526Z,1022.53
2019-03-23T05:39:43.449Z,1022.58
2019-03-23T05:40:43.445Z,1022.53
2019-03-23T05:41:43.521Z,1022.59
2019-03-23T05:42:43.438Z,1022.55
2019-03-23T05:43:43.407Z,1022.57
2019-03-23T05:44:43.383Z,1022.60
2019-03-23T05:45:43.384Z,1022.60
2019-03-23T05:46:43.366Z,1022.61
2019-03-23T05:47:43.404Z,1022.63
2019-03-23T05:48:43.355Z,1022.65
2019-03-23T05:49:43.330Z,1022.64
2019-03-23T05:50:43.329Z,1022.64
2019-03-23T05:51:43.359Z,1022.69
2019-03-23T05:52:43.342Z,1022.67
2019-03-23T05:53:43.297Z,1022.67
2019-03-23T05:54:43.269Z,1022.67
2019-03-23T05:55:43.271Z,1022.70
2019-03-23T05:56:43.273Z,1022.67
2019-03-23T05:57:43.247Z,1022.69
2019-03-23T05:58:43.247Z,1022.67
2019-03-23T05:59:43.260Z,1022.65
2019-03-23T06:00:43.206Z,1022.64
2019-03-23T06:01:43.212Z,1022.61
2019-03-23T06:02:43.209Z,1022.62
2019-03-23T06:03:43.176Z,1022.70
2019-03-23T06:04:43.174Z,1022.69
2019-03-23T06:05:43.161Z,1022.69
2019-03-23T06:06:43.150Z,1022.68
2019-03-23T06:07:43.143Z,1022.70
2019-03-23T06:08:43.120Z,1022.71
2019-03-23T06:09:43.117Z,1022.75
2019-03-23T06:10:43.098Z,1022.72
2019-03-23T06:11:43.169Z,1022.77
2019-03-23T06:12:43.090Z,1022.73
2019-03-23T06:13:43.058Z,1022.71
2019-03-23T06:14:43.055Z,1022.76
2019-03-23T06:15:43.042Z,1022.78
2019-03-23T06:16:43.024Z,1022.78
2019-03-23T06:17:43.045Z,1022.77
2019-03-23T06:18:43.014Z,1022.78
2019-03-23T06:19:43.005Z,1022.78
2019-03-23T06:20:42.983Z,1022.76
2019-03-23T06:21:42.972Z,1022.79
2019-03-23T06:22:42.987Z,1022.78
2019-03-23T06:23:42.963Z,1022.80
2019-03-23T06:24:42.949Z,1022.84
2019-03-23T06:25:42.939Z,1022.82
2019-03-23T06:26:42.935Z,1022.86
2019-03-23T06:27:42.931Z,1022.85
2019-03-23T06:28:42.920Z,1022.86
2019-03-23T06:29:42.878Z,1022.86
2019-03-23T06:30:42.880Z,1022.88
2019-03-23T06:31:42.877Z,1022.87
2019-03-23T06:32:42.869Z,1022.93
2019-03-23T06:33:42.857Z,1022.87
2019-03-23T06:34:42.844Z,1022.88
2019-03-23T06:35:42.821Z,1022.88
2019-03-23T06:36:42.828Z,1022.88
2019-03-23T06:37:42.833Z,1022.89
2019-03-23T06:38:42.784Z,1022.90
2019-03-23T06:39:42.780Z,1022.88
2019-03-23T06:40:42.762Z,1022.89
2019-03-23T06:41:42.806Z,1022.89
2019-03-23T06:42:42.758Z,1022.89
2019-03-23T06:43:42.735Z,1022.87
2019-03-23T06:44:42.720Z,1022.86
2019-03-23T06:45:42.728Z,1022.86
2019-03-23T06:46:42.704Z,1022.87
2019-03-23T06:47:42.720Z,1022.89
2019-03-23T06:48:42.670Z,1022.89
2019-03-23T06:49:42.701Z,1022.88
2019-03-23T06:50:42.652Z,1022.86
2019-03-23T06:51:42.647Z,1022.84
2019-03-23T06:52:42.635Z,1022.88
2019-03-23T06:53:42.632Z,1022.89
2019-03-23T06:54:42.646Z,1022.94
2019-03-23T06:55:42.605Z,1022.96
2019-03-23T06:56:42.600Z,1022.95
2019-03-23T06:57:42.573Z,1022.96
2019-03-23T06:58:42.594Z,1022.96
2019-03-23T06:59:42.549Z,1022.97
2019-03-23T07:00:42.551Z,1022.93
2019-03-23T07:01:42.542Z,1022.96
2019-03-23T07:02:42.531Z,1022.98
2019-03-23T07:03:42.519Z,1022.95
2019-03-23T07:04:42.499Z,1022.94
2019-03-23T07:05:42.511Z,1022.91
2019-03-23T07:06:42.480Z,1022.92
2019-03-23T07:07:42.466Z,1022.93
2019-03-23T07:08:42.463Z,1022.92
2019-03-23T07:09:42.492Z,1022.98
2019-03-23T07:10:42.482Z,1022.98
2019-03-23T07:11:42.533Z,1023.04
2019-03-23T07:12:42.424Z,1023.01
2019-03-23T07:13:42.411Z,1023.01
2019-03-23T07:14:42.399Z,1022.99
2019-03-23T07:15:42.369Z,1023.04
2019-03-23T07:16:42.360Z,1023.04
2019-03-23T07:17:42.364Z,1023.04
2019-03-23T07:18:42.364Z,1023.00
2019-03-23T07:19:42.326Z,1023.02
2019-03-23T07:20:42.452Z,1023.05
2019-03-23T07:21:42.302Z,1023.04
2019-03-23T07:22:42.293Z,1023.01
2019-03-23T07:23:42.292Z,1023.05
2019-03-23T07:24:42.277Z,1023.04
2019-03-23T07:25:42.321Z,1023.09
2019-03-23T07:26:42.278Z,1023.08
2019-03-23T07:27:42.240Z,1023.06
2019-03-23T07:28:42.255Z,1023.18
2019-03-23T07:29:42.230Z,1023.13
2019-03-23T07:30:42.224Z,1023.14
2019-03-23T07:31:42.207Z,1023.16
2019-03-23T07:32:42.210Z,1023.13
2019-03-23T07:33:42.190Z,1023.14
2019-03-23T07:34:42.172Z,1023.12
2019-03-23T07:35:42.167Z,1023.14
2019-03-23T07:36:42.143Z,1023.20
2019-03-23T07:37:42.132Z,1023.16
2019-03-23T07:38:42.156Z,1023.16
2019-03-23T07:39:42.119Z,1023.17
2019-03-23T07:40:42.112Z,1023.23
2019-03-23T07:41:42.161Z,1023.20
2019-03-23T07:42:42.079Z,1023.20
2019-03-23T07:43:42.086Z,1023.22
2019-03-23T07:44:42.064Z,1023.19
2019-03-23T07:45:42.047Z,1023.25
2019-03-23T07:46:42.031Z,1023.25
2019-03-23T07:47:42.021Z,1023.29
2019-03-23T07:48:42.028Z,1023.21
2019-03-23T07:49:42.001Z,1023.28
2019-03-23T07:50:41.989Z,1023.26
2019-03-23T07:51:42.073Z,1023.32
2019-03-23T07:52:41.964Z,1023.31
2019-03-23T07:53:41.974Z,1023.39
2019-03-23T07:54:41.964Z,1023.41
2019-03-23T07:55:41.944Z,1023.43
2019-03-23T07:56:41.938Z,1023.41
2019-03-23T07:57:41.910Z,1023.40
2019-03-23T07:58:41.931Z,1023.46
2019-03-23T07:59:41.903Z,1023.47
2019-03-23T08:00:41.883Z,1023.46
2019-03-23T08:01:41.875Z,1023.48
2019-03-23T08:02:41.863Z,1023.49
2019-03-23T08:03:41.852Z,1023.47
2019-03-23T08:04:41.847Z,1023.47
2019-03-23T08:05:41.837Z,1023.49
2019-03-23T08:06:41.827Z,1023.50
2019-03-23T08:07:41.820Z,1023.46
2019-03-23T08:08:41.821Z,1023.46
2019-03-23T08:09:41.773Z,1023.43
2019-03-23T08:10:41.775Z,1023.47
2019-03-23T08:11:41.767Z,1023.48
2019-03-23T08:12:41.745Z,1023.50
2019-03-23T08:13:41.768Z,1023.48
2019-03-23T08:14:41.732Z,1023.46
2019-03-23T08:15:41.732Z,1023.46
2019-03-23T08:16:41.712Z,1023.48
2019-03-23T08:17:41.708Z,1023.50
2019-03-23T08:18:41.706Z,1023.51
2019-03-23T08:19:41.672Z,1023.47
2019-03-23T08:20:41.655Z,1023.46
2019-03-23T08:21:41.642Z,1023.49
2019-03-23T08:22:41.637Z,1023.51
2019-03-23T08:23:41.630Z,1023.50
2019-03-23T08:24:41.627Z,1023.52
2019-03-23T08:25:41.598Z,1023.51
2019-03-23T08:26:41.621Z,1023.50
2019-03-23T08:27:41.762Z,1023.55
2019-03-23T08:28:41.562Z,1023.56
2019-03-23T08:29:41.565Z,1023.56
2019-03-23T08:30:41.547Z,1023.58
2019-03-23T08:31:41.535Z,1023.55
2019-03-23T08:32:41.532Z,1023.56
2019-03-23T08:33:41.538Z,1023.52
2019-03-23T08:34:41.516Z,1023.56
2019-03-23T08:35:41.512Z,1023.59
2019-03-23T08:36:41.484Z,1023.56
2019-03-23T08:37:41.467Z,1023.54
2019-03-23T08:38:41.463Z,1023.56
2019-03-23T08:39:48.538Z,1023.55
2019-03-23T08:40:42.518Z,1023.59
2019-03-23T08:41:41.546Z,1023.59
2019-03-23T08:42:41.420Z,1023.53
2019-03-23T08:43:41.399Z,1023.59
2019-03-23T08:44:41.394Z,1023.55
2019-03-23T08:45:41.405Z,1023.56
2019-03-23T08:46:41.369Z,1023.62
2019-03-23T08:47:41.357Z,1023.59
2019-03-23T08:48:41.354Z,1023.56
2019-03-23T08:49:41.367Z,1023.58
2019-03-23T08:50:41.320Z,1023.53
2019-03-23T08:51:41.319Z,1023.56
2019-03-23T08:52:41.310Z,1023.59
2019-03-23T08:53:41.298Z,1023.57
2019-03-23T08:54:41.285Z,1023.60
2019-03-23T08:55:41.272Z,1023.59
2019-03-23T08:56:41.270Z,1023.60
2019-03-23T08:57:41.530Z,1023.53
2019-03-23T08:58:41.245Z,1023.57
2019-03-23T08:59:41.252Z,1023.57
2019-03-23T09:00:41.207Z,1023.57
2019-03-23T09:01:41.204Z,1023.51
2019-03-23T09:02:41.201Z,1023.55
2019-03-23T09:03:51.756Z,1023.57
2019-03-23T09:04:42.212Z,1023.60
2019-03-23T09:05:41.178Z,1023.60
2019-03-23T09:06:41.147Z,1023.60
2019-03-23T09:07:41.241Z,1023.58
2019-03-23T09:08:41.133Z,1023.58
2019-03-23T09:09:41.154Z,1023.59
2019-03-23T09:10:41.103Z,1023.58
2019-03-23T09:11:41.089Z,1023.58
2019-03-23T09:12:41.114Z,1023.59
2019-03-23T09:13:41.111Z,1023.61
2019-03-23T09:14:41.095Z,1023.62
2019-03-23T09:15:41.058Z,1023.60
2019-03-23T09:16:41.089Z,1023.61
2019-03-23T09:17:41.023Z,1023.63
2019-03-23T09:18:41.056Z,1023.63
2019-03-23T09:19:41.020Z,1023.63
2019-03-23T09:20:40.995Z,1023.67
2019-03-23T09:21:40.988Z,1023.70
2019-03-23T09:22:41.011Z,1023.71
2019-03-23T09:23:40.967Z,1023.73
2019-03-23T09:24:40.982Z,1023.73
2019-03-23T09:25:40.956Z,1023.71
2019-03-23T09:26:41.019Z,1023.72
2019-03-23T09:27:40.922Z,1023.69
2019-03-23T09:28:40.906Z,1023.68
2019-03-23T09:29:40.936Z,1023.66
2019-03-23T09:30:40.879Z,1023.69
2019-03-23T09:31:40.868Z,1023.71
2019-03-23T09:32:40.860Z,1023.64
2019-03-23T09:33:40.868Z,1023.67
2019-03-23T09:34:40.853Z,1023.69
2019-03-23T09:35:40.823Z,1023.68
2019-03-23T09:36:41.461Z,1023.67
2019-03-23T09:37:40.804Z,1023.67
2019-03-23T09:38:40.792Z,1023.71
2019-03-23T09:39:40.797Z,1023.70
2019-03-23T09:40:40.780Z,1023.74
2019-03-23T09:41:40.774Z,1023.68
2019-03-23T09:42:40.789Z,1023.71
2019-03-23T09:43:40.784Z,1023.67
2019-03-23T09:44:40.771Z,1023.68
2019-03-23T09:45:40.728Z,1023.71
2019-03-23T09:46:40.707Z,1023.72
2019-03-23T09:47:40.687Z,1023.71
2019-03-23T09:48:40.682Z,1023.74
2019-03-23T09:49:40.670Z,1023.69
2019-03-23T09:50:40.675Z,1023.78
2019-03-23T09:51:40.655Z,1023.73
2019-03-23T09:52:40.637Z,1023.72
2019-03-23T09:53:40.638Z,1023.71
2019-03-23T09:54:40.615Z,1023.77
2019-03-23T09:55:40.630Z,1023.74
2019-03-23T09:56:40.593Z,1023.77
2019-03-23T09:57:40.580Z,1023.75
2019-03-23T09:58:40.572Z,1023.73
2019-03-23T09:59:40.552Z,1023.73
2019-03-23T10:00:40.560Z,1023.74
2019-03-23T10:01:40.545Z,1023.72
2019-03-23T10:02:40.522Z,1023.71
2019-03-23T10:03:42.858Z,1023.73
2019-03-23T10:04:40.509Z,1023.75
2019-03-23T10:05:40.498Z,1023.74
2019-03-23T10:06:40.494Z,1023.73
2019-03-23T10:07:40.485Z,1023.74
2019-03-23T10:08:40.481Z,1023.74
2019-03-23T10:09:40.447Z,1023.73
2019-03-23T10:10:40.461Z,1023.72
2019-03-23T10:11:40.451Z,1023.75
2019-03-23T10:12:40.438Z,1023.73
2019-03-23T10:13:40.423Z,1023.70
2019-03-23T10:14:40.393Z,1023.73
2019-03-23T10:15:40.394Z,1023.71
2019-03-23T10:16:40.379Z,1023.70
2019-03-23T10:17:40.365Z,1023.71
2019-03-23T10:18:40.354Z,1023.72
2019-03-23T10:19:40.336Z,1023.74
2019-03-23T10:20:40.347Z,1023.72
2019-03-23T10:21:40.320Z,1023.74
2019-03-23T10:22:40.308Z,1023.75
2019-03-23T10:23:40.299Z,1023.71
2019-03-23T10:24:40.282Z,1023.74
2019-03-23T10:25:40.305Z,1023.72
2019-03-23T10:26:40.267Z,1023.72
2019-03-23T10:27:40.254Z,1023.77
2019-03-23T10:28:40.238Z,1023.69
2019-03-23T10:29:40.229Z,1023.72
2019-03-23T10:30:40.223Z,1023.71
2019-03-23T10:31:40.209Z,1023.73
2019-03-23T10:32:40.207Z,1023.74
2019-03-23T10:33:40.185Z,1023.73
2019-03-23T10:34:40.163Z,1023.71
2019-03-23T10:35:40.170Z,1023.77
2019-03-23T10:36:40.173Z,1023.80
2019-03-23T10:37:40.135Z,1023.78
2019-03-23T10:38:40.121Z,1023.72
2019-03-23T10:39:40.118Z,1023.73
2019-03-23T10:40:40.117Z,1023.77
2019-03-23T10:41:40.191Z,1023.75
2019-03-23T10:42:40.083Z,1023.70
2019-03-23T10:43:40.074Z,1023.76
2019-03-23T10:44:40.060Z,1023.76
2019-03-23T10:45:44.460Z,1023.72
2019-03-23T10:46:40.048Z,1023.75
2019-03-23T10:47:40.129Z,1023.79
2019-03-23T10:48:40.019Z,1023.71
2019-03-23T10:49:40.018Z,1023.73
2019-03-23T10:50:40.021Z,1023.73
2019-03-23T10:51:39.989Z,1023.73
2019-03-23T10:52:39.991Z,1023.74
2019-03-23T10:53:39.966Z,1023.74
2019-03-23T10:54:39.954Z,1023.74
2019-03-23T10:55:39.946Z,1023.71
2019-03-23T10:56:39.932Z,1023.73
2019-03-23T10:57:39.930Z,1023.71
2019-03-23T10:58:39.909Z,1023.72
2019-03-23T10:59:39.906Z,1023.69
2019-03-23T11:00:39.907Z,1023.70
2019-03-23T11:01:39.873Z,1023.68
2019-03-23T11:02:39.878Z,1023.66
2019-03-23T11:03:39.861Z,1023.64
2019-03-23T11:04:39.874Z,1023.64
2019-03-23T11:05:39.862Z,1023.66
2019-03-23T11:06:39.822Z,1023.66
2019-03-23T11:07:39.834Z,1023.64
2019-03-23T11:08:39.804Z,1023.66
2019-03-23T11:09:39.793Z,1023.63
2019-03-23T11:10:41.972Z,1023.65
2019-03-23T11:11:39.821Z,1023.65
2019-03-23T11:12:39.760Z,1023.64
2019-03-23T11:13:39.743Z,1023.65
2019-03-23T11:14:39.735Z,1023.62
2019-03-23T11:15:39.734Z,1023.61
2019-03-23T11:16:39.717Z,1023.64
2019-03-23T11:17:39.692Z,1023.64
2019-03-23T11:18:39.748Z,1023.70
2019-03-23T11:19:39.675Z,1023.70
2019-03-23T11:20:39.711Z,1023.69
2019-03-23T11:21:39.910Z,1023.73
2019-03-23T11:22:39.679Z,1023.69
2019-03-23T11:23:39.631Z,1023.75
2019-03-23T11:24:39.626Z,1023.74
2019-03-23T11:25:39.607Z,1023.72
2019-03-23T11:26:39.605Z,1023.77
2019-03-23T11:27:39.588Z,1023.76
2019-03-23T11:28:39.575Z,1023.82
2019-03-23T11:29:39.566Z,1023.78
2019-03-23T11:30:39.553Z,1023.81
2019-03-23T11:31:39.566Z,1023.85
2019-03-23T11:32:39.568Z,1023.80
2019-03-23T11:33:39.526Z,1023.85
2019-03-23T11:34:39.524Z,1023.81
2019-03-23T11:35:39.499Z,1023.84
2019-03-23T11:36:39.517Z,1023.83
2019-03-23T11:37:39.609Z,1023.79
2019-03-23T11:38:39.480Z,1023.82
2019-03-23T11:39:39.460Z,1023.79
2019-03-23T11:40:39.452Z,1023.77
2019-03-23T11:41:39.575Z,1023.80
2019-03-23T11:42:49.252Z,1023.80
2019-03-23T11:43:40.431Z,1023.82
2019-03-23T11:44:39.533Z,1023.82
2019-03-23T11:45:39.391Z,1023.77
2019-03-23T11:46:39.389Z,1023.78
2019-03-23T11:47:39.364Z,1023.80
2019-03-23T11:48:39.384Z,1023.82
2019-03-23T11:49:39.412Z,1023.77
2019-03-23T11:50:39.328Z,1023.79
2019-03-23T11:51:39.336Z,1023.75
2019-03-23T11:52:39.323Z,1023.75
2019-03-23T11:53:39.309Z,1023.75
2019-03-23T11:54:39.289Z,1023.77
2019-03-23T11:55:39.280Z,1023.79
2019-03-23T11:56:39.311Z,1023.78
2019-03-23T11:57:39.271Z,1023.80
2019-03-23T11:58:39.248Z,1023.84
2019-03-23T11:59:39.230Z,1023.78
2019-03-23T12:00:39.224Z,1023.78
2019-03-23T12:01:39.220Z,1023.76
2019-03-23T12:02:39.209Z,1023.79
2019-03-23T12:03:39.195Z,1023.77
2019-03-23T12:04:39.177Z,1023.82
2019-03-23T12:05:39.167Z,1023.79